createdAt,value
2022-12-15T00:02:17.051Z,9.52
2022-12-15T00:05:02.104Z,6.97
2022-12-15T00:07:47.203Z,9.45
2022-12-15T00:10:32.892Z,7.00
2022-12-15T00:13:18.285Z,7.65
2022-12-15T00:16:07.737Z,7.57
2022-12-15T00:18:53.417Z,8.85
2022-12-15T00:21:39.176Z,7.93
2022-12-15T00:24:24.895Z,7.40
2022-12-15T00:27:10.201Z,8.55
2022-12-15T00:29:55.460Z,8.43
2022-12-15T00:32:41.087Z,7.50
2022-12-15T00:35:26.402Z,6.90
2022-12-15T00:38:11.907Z,7.63
2022-12-15T00:43:05.285Z,7.65
2022-12-15T00:45:50.264Z,8.38
2022-12-15T00:48:16.885Z,8.15
2022-12-15T00:50:52.237Z,7.60
2022-12-15T00:53:41.835Z,8.13
2022-12-15T00:56:28.214Z,7.43
2022-12-15T00:59:14.654Z,8.75
2022-12-15T01:02:00.455Z,9.40
2022-12-15T01:04:46.724Z,5.90
2022-12-15T01:07:33.119Z,6.88
2022-12-15T01:10:19.079Z,9.05
2022-12-15T01:13:05.337Z,12.35
2022-12-15T01:15:50.682Z,9.07
2022-12-15T01:18:35.934Z,9.50
2022-12-15T01:21:06.720Z,11.65
2022-12-15T01:23:33.967Z,12.07
2022-12-15T01:26:01.487Z,10.45
2022-12-15T01:28:28.541Z,10.10
2022-12-15T01:30:55.423Z,10.63
2022-12-15T01:33:22.885Z,10.55
2022-12-15T01:36:00.034Z,9.38
2022-12-15T01:38:28.462Z,10.23
2022-12-15T01:41:05.122Z,10.38
2022-12-15T01:43:35.053Z,11.80
2022-12-15T01:46:03.632Z,7.30
2022-12-15T01:48:36.231Z,10.13
2022-12-15T01:51:02.824Z,11.10
2022-12-15T01:53:34.244Z,11.98
2022-12-15T01:56:02.491Z,9.18
2022-12-15T01:58:29.313Z,10.65
2022-12-15T02:00:56.059Z,8.93
2022-12-15T02:03:23.516Z,7.88
2022-12-15T02:05:50.604Z,11.35
2022-12-15T02:08:18.314Z,8.98
2022-12-15T02:10:56.883Z,8.38
2022-12-15T02:14:02.777Z,8.93
2022-12-15T02:16:29.392Z,8.45
2022-12-15T02:19:41.018Z,7.88
2022-12-15T02:22:46.038Z,8.15
2022-12-15T02:25:30.838Z,7.30
2022-12-15T02:28:10.194Z,8.45
2022-12-15T02:30:39.868Z,7.18
2022-12-15T02:33:15.644Z,9.20
2022-12-15T02:36:14.450Z,7.95
2022-12-15T02:38:45.266Z,8.48
2022-12-15T02:41:33.976Z,8.23
2022-12-15T02:44:04.125Z,8.07
2022-12-15T02:47:00.090Z,7.97
2022-12-15T02:49:52.127Z,7.85
2022-12-15T02:52:51.407Z,9.85
2022-12-15T02:55:36.238Z,8.52
2022-12-15T02:58:13.736Z,8.23
2022-12-15T03:00:48.554Z,7.07
2022-12-15T03:03:20.420Z,8.68
2022-12-15T03:05:54.821Z,8.30
2022-12-15T03:08:22.171Z,6.85
2022-12-15T03:10:51.614Z,9.93
2022-12-15T03:13:18.267Z,9.35
2022-12-15T03:15:44.891Z,8.02
2022-12-15T03:18:11.588Z,7.97
2022-12-15T03:20:38.415Z,7.50
2022-12-15T03:23:05.140Z,7.97
2022-12-15T03:25:31.891Z,7.68
2022-12-15T03:27:58.683Z,9.05
2022-12-15T03:30:25.350Z,7.65
2022-12-15T03:32:51.963Z,8.40
2022-12-15T03:35:18.641Z,9.30
2022-12-15T03:37:45.430Z,10.00
2022-12-15T03:40:14.035Z,7.53
2022-12-15T03:42:49.614Z,9.50
2022-12-15T03:45:21.598Z,7.88
2022-12-15T03:47:49.090Z,11.65
2022-12-15T03:50:18.106Z,8.85
2022-12-15T03:52:44.798Z,12.18
2022-12-15T03:55:11.889Z,8.65
2022-12-15T03:57:38.475Z,9.05
2022-12-15T04:00:07.129Z,7.68
2022-12-15T04:02:33.837Z,11.13
2022-12-15T04:05:00.597Z,8.60
2022-12-15T04:07:27.196Z,8.00
2022-12-15T04:09:53.818Z,6.63
2022-12-15T04:12:20.523Z,9.27
2022-12-15T04:14:47.216Z,9.15
2022-12-15T04:17:16.446Z,9.65
2022-12-15T04:20:01.706Z,12.65
2022-12-15T04:22:28.304Z,11.85
2022-12-15T04:25:13.573Z,9.73
2022-12-15T04:28:01.673Z,11.95
2022-12-15T04:30:48.611Z,13.32
2022-12-15T04:33:34.644Z,7.05
2022-12-15T04:36:20.600Z,9.13
2022-12-15T04:39:05.786Z,13.52
2022-12-15T04:41:51.466Z,12.52
2022-12-15T04:44:37.420Z,10.95
2022-12-15T04:47:22.624Z,9.00
2022-12-15T04:50:08.002Z,8.98
2022-12-15T04:52:53.172Z,7.57
2022-12-15T04:55:38.203Z,10.90
2022-12-15T04:58:27.719Z,4.45
2022-12-15T05:01:15.295Z,11.10
2022-12-15T05:04:00.810Z,9.65
2022-12-15T05:09:31.704Z,9.15
2022-12-15T05:15:02.154Z,9.15
2022-12-15T05:17:48.277Z,9.68
2022-12-15T05:20:33.474Z,9.88
2022-12-15T05:23:18.741Z,9.43
2022-12-15T05:26:04.210Z,9.75
2022-12-15T05:31:34.729Z,9.07
2022-12-15T05:34:05.503Z,9.50
2022-12-15T05:36:33.199Z,8.60
2022-12-15T05:38:59.986Z,11.30
2022-12-15T05:41:26.638Z,12.57
2022-12-15T05:43:53.313Z,11.50
2022-12-15T05:46:20.108Z,13.52
2022-12-15T05:48:47.322Z,13.77
2022-12-15T05:51:14.662Z,6.78
2022-12-15T05:53:42.638Z,11.25
2022-12-15T05:56:14.175Z,8.15
2022-12-15T05:58:45.385Z,11.48
2022-12-15T06:01:17.863Z,10.32
2022-12-15T06:03:44.849Z,9.98
2022-12-15T06:06:13.186Z,9.60
2022-12-15T06:08:41.825Z,10.93
2022-12-15T06:11:11.393Z,8.65
2022-12-15T06:13:38.110Z,10.13
2022-12-15T06:16:12.069Z,9.57
2022-12-15T06:18:42.019Z,8.55
2022-12-15T06:21:21.067Z,10.25
2022-12-15T06:23:48.174Z,9.23
2022-12-15T06:26:19.271Z,9.98
2022-12-15T06:28:46.626Z,10.05
2022-12-15T06:31:14.658Z,9.35
2022-12-15T06:33:41.985Z,8.60
2022-12-15T06:36:15.153Z,11.10
2022-12-15T06:38:43.642Z,9.02
2022-12-15T06:41:16.132Z,10.20
2022-12-15T06:43:43.192Z,9.70
2022-12-15T06:46:10.301Z,9.68
2022-12-15T06:48:36.949Z,9.93
2022-12-15T06:51:05.620Z,10.23
2022-12-15T06:53:35.928Z,9.45
2022-12-15T06:56:05.421Z,10.70
2022-12-15T06:58:32.086Z,10.32
2022-12-15T07:00:59.224Z,10.80
2022-12-15T07:03:26.142Z,10.25
2022-12-15T07:06:07.425Z,11.05
2022-12-15T07:08:39.602Z,11.60
2022-12-15T07:11:11.560Z,10.75
2022-12-15T07:13:38.849Z,10.82
2022-12-15T07:16:07.323Z,10.43
2022-12-15T07:18:34.355Z,11.07
2022-12-15T07:21:06.691Z,11.18
2022-12-15T07:23:53.216Z,10.52
2022-12-15T07:26:20.648Z,11.38
2022-12-15T07:28:47.369Z,10.55
2022-12-15T07:31:14.009Z,14.07
2022-12-15T07:33:40.731Z,10.50
2022-12-15T07:36:08.455Z,13.68
2022-12-15T07:38:35.496Z,9.68
2022-12-15T07:41:04.141Z,10.73
2022-12-15T07:43:31.585Z,10.68
2022-12-15T07:45:58.754Z,10.75
2022-12-15T07:48:25.567Z,11.63
2022-12-15T07:51:02.846Z,12.30
2022-12-15T07:53:34.237Z,8.85
2022-12-15T07:56:10.050Z,9.93
2022-12-15T07:58:38.339Z,10.30
2022-12-15T08:01:07.937Z,8.02
2022-12-15T08:03:36.202Z,10.48
2022-12-15T08:06:07.956Z,11.00
2022-12-15T08:08:35.587Z,13.60
2022-12-15T08:11:07.048Z,12.43
2022-12-15T08:16:21.563Z,9.20
2022-12-15T08:18:49.010Z,10.55
2022-12-15T08:21:15.816Z,10.43
2022-12-15T08:23:42.546Z,9.77
2022-12-15T08:26:15.177Z,10.52
2022-12-15T08:28:43.280Z,10.45
2022-12-15T08:31:16.881Z,9.18
2022-12-15T08:33:45.068Z,10.25
2022-12-15T08:36:13.823Z,10.25
2022-12-15T08:38:42.164Z,8.25
2022-12-15T08:41:17.298Z,10.88
2022-12-15T08:43:48.527Z,10.07
2022-12-15T08:46:17.368Z,12.90
2022-12-15T08:48:44.517Z,9.38
2022-12-15T08:51:11.358Z,10.27
2022-12-15T08:53:38.811Z,11.50
2022-12-15T08:56:07.614Z,10.80
2022-12-15T08:58:34.745Z,9.75
2022-12-15T09:01:02.682Z,11.48
2022-12-15T09:03:30.057Z,7.88
2022-12-15T09:06:01.385Z,10.68
2022-12-15T09:08:30.892Z,11.48
2022-12-15T09:11:01.007Z,12.43
2022-12-15T09:13:28.956Z,12.10
2022-12-15T09:16:10.460Z,14.32
2022-12-15T09:18:38.054Z,14.50
2022-12-15T09:21:07.531Z,14.80
2022-12-15T09:23:36.795Z,9.15
2022-12-15T09:26:06.322Z,11.20
2022-12-15T09:28:33.380Z,13.50
2022-12-15T09:31:11.443Z,12.63
2022-12-15T09:33:39.414Z,12.82
2022-12-15T09:36:06.912Z,17.42
2022-12-15T09:38:35.153Z,16.45
2022-12-15T09:41:32.253Z,14.60
2022-12-15T09:44:05.423Z,10.05
2022-12-15T09:46:44.059Z,15.10
2022-12-15T09:49:36.600Z,18.83
2022-12-15T09:52:14.597Z,15.18
2022-12-15T09:54:43.268Z,11.07
2022-12-15T09:57:34.353Z,12.82
2022-12-15T10:00:11.501Z,11.13
2022-12-15T10:03:01.108Z,9.32
2022-12-15T10:05:50.141Z,18.23
2022-12-15T10:08:16.013Z,14.68
2022-12-15T10:10:56.835Z,11.15
2022-12-15T10:13:52.263Z,16.40
2022-12-15T10:16:30.545Z,15.35
2022-12-15T10:19:14.178Z,16.95
2022-12-15T10:21:41.136Z,16.02
2022-12-15T10:24:31.876Z,15.77
2022-12-15T10:27:22.948Z,18.58
2022-12-15T10:30:03.782Z,19.35
2022-12-15T10:32:44.467Z,14.98
2022-12-15T10:35:35.991Z,16.50
2022-12-15T10:38:23.741Z,12.30
2022-12-15T10:40:54.963Z,11.55
2022-12-15T10:43:32.144Z,12.85
2022-12-15T10:46:15.661Z,12.90
2022-12-15T10:48:48.442Z,15.45
2022-12-15T10:51:29.945Z,18.02
2022-12-15T10:54:06.742Z,19.98
2022-12-15T10:56:34.570Z,17.20
2022-12-15T10:59:04.615Z,15.80
2022-12-15T11:01:34.309Z,16.25
2022-12-15T11:04:01.258Z,17.30
2022-12-15T11:06:31.423Z,21.73
2022-12-15T11:09:26.972Z,22.05
2022-12-15T11:12:12.355Z,14.07
2022-12-15T11:17:19.619Z,22.00
2022-12-15T11:20:01.886Z,8.93
2022-12-15T11:22:50.623Z,14.80
2022-12-15T11:25:29.493Z,12.20
2022-12-15T11:27:59.860Z,13.40
2022-12-15T11:30:33.140Z,15.70
2022-12-15T11:33:05.912Z,13.68
2022-12-15T11:38:27.983Z,12.65
2022-12-15T11:40:58.434Z,14.57
2022-12-15T11:43:37.362Z,15.60
2022-12-15T11:49:06.126Z,15.43
2022-12-15T11:51:57.739Z,12.27
2022-12-15T11:57:50.496Z,15.85
2022-12-15T12:00:20.074Z,17.58
2022-12-15T12:03:16.537Z,21.30
2022-12-15T12:06:12.438Z,18.52
2022-12-15T12:12:08.380Z,18.65
2022-12-15T12:14:50.458Z,21.13
2022-12-15T12:17:36.636Z,14.38
2022-12-15T12:20:14.488Z,12.70
2022-12-15T12:22:49.770Z,15.95
2022-12-15T12:25:20.921Z,13.63
2022-12-15T12:27:56.876Z,15.10
2022-12-15T12:30:27.987Z,13.90
2022-12-15T12:33:11.826Z,13.43
2022-12-15T12:35:53.067Z,13.80
2022-12-15T12:38:27.047Z,13.48
2022-12-15T12:41:03.143Z,12.55
2022-12-15T12:43:44.519Z,16.13
2022-12-15T12:46:22.932Z,13.23
2022-12-15T12:51:24.808Z,13.63
2022-12-15T12:53:52.325Z,12.65
2022-12-15T12:56:51.199Z,19.50
2022-12-15T12:59:29.725Z,13.85
2022-12-15T13:02:17.165Z,4.82
2022-12-15T13:04:50.547Z,13.32
2022-12-15T13:07:32.583Z,13.52
2022-12-15T13:10:08.159Z,10.23
2022-12-15T13:12:53.535Z,11.77
2022-12-15T13:15:42.550Z,12.68
2022-12-15T13:18:24.439Z,13.00
2022-12-15T13:20:55.820Z,10.15
2022-12-15T13:23:22.456Z,12.25
2022-12-15T13:25:59.064Z,11.63
2022-12-15T13:28:40.722Z,12.75
2022-12-15T13:31:16.558Z,4.00
2022-12-15T13:33:49.297Z,13.05
2022-12-15T13:39:01.020Z,8.55
2022-12-15T13:41:27.673Z,10.30
2022-12-15T13:43:55.020Z,11.63
2022-12-15T13:46:29.583Z,11.82
2022-12-15T13:49:13.924Z,10.80
2022-12-15T13:51:45.998Z,11.40
2022-12-15T13:54:25.095Z,13.55
2022-12-15T13:57:14.470Z,12.00
2022-12-15T13:59:55.925Z,11.45
2022-12-15T14:02:33.781Z,11.35
2022-12-15T14:05:22.985Z,10.55
2022-12-15T14:07:58.341Z,12.98
2022-12-15T14:10:38.920Z,11.48
2022-12-15T14:13:30.765Z,11.90
2022-12-15T14:15:57.704Z,9.68
2022-12-15T14:18:30.242Z,11.55
2022-12-15T14:20:58.291Z,11.75
2022-12-15T14:23:38.516Z,11.52
2022-12-15T14:26:08.104Z,10.48
2022-12-15T14:28:37.092Z,10.45
2022-12-15T14:31:07.107Z,11.30
2022-12-15T14:33:37.980Z,11.75
2022-12-15T14:36:08.724Z,10.68
2022-12-15T14:38:53.972Z,11.73
2022-12-15T14:41:48.875Z,11.00
2022-12-15T14:44:31.347Z,13.20
2022-12-15T14:47:26.914Z,11.63
2022-12-15T14:49:55.372Z,9.60
2022-12-15T14:52:27.203Z,11.70
2022-12-15T14:54:57.565Z,8.80
2022-12-15T14:57:43.564Z,11.63
2022-12-15T15:00:34.019Z,10.00
2022-12-15T15:03:10.572Z,21.60
2022-12-15T15:03:20.282Z,10.50
2022-12-15T15:06:01.847Z,9.98
2022-12-15T15:08:41.621Z,9.93
2022-12-15T15:11:38.007Z,11.00
2022-12-15T15:14:10.903Z,8.43
2022-12-15T15:16:38.006Z,9.05
2022-12-15T15:19:05.493Z,8.20
2022-12-15T15:21:39.038Z,8.52
2022-12-15T15:24:11.848Z,6.30
2022-12-15T15:26:40.061Z,6.45
2022-12-15T15:29:39.317Z,7.47
2022-12-15T15:32:17.385Z,5.25
2022-12-15T15:34:45.132Z,6.78
2022-12-15T15:37:18.175Z,6.80
2022-12-15T15:39:47.420Z,6.35
2022-12-15T15:42:14.012Z,6.15
2022-12-15T15:44:40.669Z,6.25
2022-12-15T15:47:14.747Z,6.75
2022-12-15T15:49:41.308Z,4.97
2022-12-15T15:52:11.742Z,6.35
2022-12-15T15:54:39.140Z,6.80
2022-12-15T15:57:05.726Z,6.55
2022-12-15T15:59:32.585Z,5.45
2022-12-15T16:01:59.899Z,5.90
2022-12-15T16:04:26.694Z,5.55
2022-12-15T16:06:53.683Z,5.70
2022-12-15T16:09:20.839Z,6.13
2022-12-15T16:11:47.613Z,6.05
2022-12-15T16:14:16.679Z,5.35
2022-12-15T16:16:43.786Z,5.45
2022-12-15T16:19:12.160Z,5.30
2022-12-15T16:21:40.051Z,4.05
2022-12-15T16:24:15.267Z,5.57
2022-12-15T16:26:47.958Z,4.82
2022-12-15T16:29:16.592Z,4.63
2022-12-15T16:31:46.108Z,5.20
2022-12-15T16:34:16.371Z,5.35
2022-12-15T16:36:44.068Z,4.70
2022-12-15T16:39:32.688Z,5.20
2022-12-15T16:41:59.709Z,5.05
2022-12-15T16:44:27.339Z,4.68
2022-12-15T16:46:54.019Z,4.40
2022-12-15T16:49:20.997Z,4.88
2022-12-15T16:51:53.245Z,4.65
2022-12-15T16:54:23.532Z,4.63
2022-12-15T16:56:52.082Z,4.47
2022-12-15T16:59:36.883Z,3.20
2022-12-15T17:02:27.991Z,4.07
2022-12-15T17:04:55.634Z,4.20
2022-12-15T17:07:23.709Z,4.47
2022-12-15T17:09:51.208Z,4.13
2022-12-15T17:12:18.371Z,4.10
2022-12-15T17:14:45.392Z,4.90
2022-12-15T17:17:18.280Z,4.55
2022-12-15T17:20:11.856Z,4.35
2022-12-15T17:22:33.361Z,4.85
2022-12-15T17:25:00.298Z,4.57
2022-12-15T17:27:29.203Z,4.03
2022-12-15T17:29:58.085Z,4.00
2022-12-15T17:32:24.667Z,3.70
2022-12-15T17:34:51.785Z,4.97
2022-12-15T17:37:18.898Z,3.95
2022-12-15T17:39:51.071Z,4.18
2022-12-15T17:44:47.984Z,4.82
2022-12-15T17:47:16.512Z,3.35
2022-12-15T17:49:43.887Z,6.35
2022-12-15T17:52:24.550Z,6.68
2022-12-15T17:54:51.795Z,3.88
2022-12-15T17:57:18.455Z,4.32
2022-12-15T17:59:45.227Z,4.47
2022-12-15T18:02:15.124Z,4.25
2022-12-15T18:04:42.915Z,4.30
2022-12-15T18:07:27.510Z,4.50
2022-12-15T18:09:54.287Z,5.20
2022-12-15T18:12:26.337Z,5.65
2022-12-15T18:14:53.735Z,4.25
2022-12-15T18:17:20.891Z,4.70
2022-12-15T18:19:47.855Z,7.03
2022-12-15T18:22:23.527Z,4.18
2022-12-15T18:24:52.019Z,4.78
2022-12-15T18:27:28.073Z,4.38
2022-12-15T18:29:55.611Z,3.78
2022-12-15T18:32:25.677Z,4.47
2022-12-15T18:34:53.632Z,4.93
2022-12-15T18:37:23.028Z,4.85
2022-12-15T18:39:50.715Z,4.68
2022-12-15T18:42:21.880Z,3.67
2022-12-15T18:44:53.510Z,4.03
2022-12-15T18:47:22.698Z,4.43
2022-12-15T18:49:49.494Z,4.57
2022-12-15T18:52:18.584Z,4.45
2022-12-15T18:54:49.781Z,3.78
2022-12-15T18:57:31.802Z,5.63
2022-12-15T19:00:14.526Z,6.13
2022-12-15T19:02:42.053Z,5.55
2022-12-15T19:05:27.269Z,4.75
2022-12-15T19:10:28.895Z,4.70
2022-12-15T19:12:58.720Z,8.60
2022-12-15T19:15:26.057Z,7.60
2022-12-15T19:18:11.643Z,5.93
2022-12-15T19:20:57.211Z,12.30
2022-12-15T19:23:23.998Z,6.80
2022-12-15T19:25:52.038Z,11.48
2022-12-15T19:28:24.321Z,8.98
2022-12-15T19:30:52.219Z,7.85
2022-12-15T19:33:19.831Z,7.65
2022-12-15T19:35:50.365Z,8.07
2022-12-15T19:38:29.890Z,8.15
2022-12-15T19:40:58.737Z,6.20
2022-12-15T19:43:26.442Z,7.15
2022-12-15T19:45:53.234Z,9.93
2022-12-15T19:48:23.651Z,10.38
2022-12-15T19:50:52.199Z,9.20
2022-12-15T19:53:27.922Z,8.05
2022-12-15T19:55:57.227Z,8.57
2022-12-15T19:58:32.799Z,7.97
2022-12-15T20:01:01.899Z,7.78
2022-12-15T20:03:32.084Z,7.32
2022-12-15T20:06:01.067Z,8.85
2022-12-15T20:08:32.824Z,8.85
2022-12-15T20:11:00.136Z,8.57
2022-12-15T20:13:27.068Z,9.98
2022-12-15T20:15:54.764Z,9.68
2022-12-15T20:18:21.577Z,7.47
2022-12-15T20:20:49.077Z,9.75
2022-12-15T20:23:21.387Z,9.25
2022-12-15T20:25:48.251Z,9.20
2022-12-15T20:28:18.290Z,8.65
2022-12-15T20:30:45.380Z,9.95
2022-12-15T20:33:12.989Z,9.32
2022-12-15T20:35:40.599Z,12.25
2022-12-15T20:38:21.190Z,14.77
2022-12-15T20:40:47.935Z,8.98
2022-12-15T20:43:17.326Z,9.90
2022-12-15T20:45:46.118Z,11.05
2022-12-15T20:48:14.379Z,8.32
2022-12-15T20:50:47.342Z,7.63
2022-12-15T20:53:19.928Z,9.15
2022-12-15T20:55:48.038Z,8.52
2022-12-15T20:58:15.222Z,9.43
2022-12-15T21:00:42.431Z,8.25
2022-12-15T21:03:40.911Z,6.85
2022-12-15T21:06:09.505Z,9.07
2022-12-15T21:08:36.081Z,8.60
2022-12-15T21:11:14.008Z,9.10
2022-12-15T21:13:40.722Z,8.32
2022-12-15T21:16:13.373Z,9.20
2022-12-15T21:21:35.167Z,7.60
2022-12-15T21:24:13.424Z,8.00
2022-12-15T21:26:40.069Z,8.63
2022-12-15T21:29:12.865Z,10.32
2022-12-15T21:31:39.473Z,9.00
2022-12-15T21:34:06.035Z,8.10
2022-12-15T21:36:32.956Z,8.13
2022-12-15T21:38:59.629Z,7.95
2022-12-15T21:41:26.375Z,7.57
2022-12-15T21:43:53.120Z,7.93
2022-12-15T21:46:28.688Z,7.80
2022-12-15T21:49:14.558Z,7.47
2022-12-15T21:51:44.176Z,7.72
2022-12-15T21:54:30.384Z,7.30
2022-12-15T21:56:58.111Z,6.47
2022-12-15T21:59:27.870Z,7.95
2022-12-15T22:01:56.147Z,7.38
2022-12-15T22:04:30.207Z,8.52
2022-12-15T22:06:57.027Z,7.60
2022-12-15T22:09:23.721Z,8.20
2022-12-15T22:11:53.806Z,8.00
2022-12-15T22:14:26.523Z,7.13
2022-12-15T22:19:20.312Z,6.82
2022-12-15T22:21:47.042Z,7.93
2022-12-15T22:24:14.176Z,7.43
2022-12-15T22:26:41.734Z,7.57
2022-12-15T22:29:19.719Z,6.75
2022-12-15T22:31:47.439Z,6.70
2022-12-15T22:34:17.796Z,7.10
2022-12-15T22:36:44.449Z,7.07
2022-12-15T22:39:11.316Z,7.22
2022-12-15T22:41:47.469Z,7.70
2022-12-15T22:44:26.597Z,6.53
2022-12-15T22:46:55.713Z,6.45
2022-12-15T22:49:31.588Z,6.57
2022-12-15T22:51:58.266Z,6.15
2022-12-15T22:54:27.395Z,6.88
2022-12-15T22:56:58.451Z,6.18
2022-12-15T22:59:30.890Z,7.38
2022-12-15T23:01:57.988Z,6.55
2022-12-15T23:04:25.136Z,7.18
2022-12-15T23:06:51.965Z,6.82
2022-12-15T23:09:18.882Z,6.28
2022-12-15T23:11:45.479Z,5.82
2022-12-15T23:14:16.956Z,5.47
2022-12-15T23:16:45.348Z,6.38
2022-12-15T23:19:23.940Z,6.65
2022-12-15T23:21:51.095Z,6.28
2022-12-15T23:24:18.360Z,5.45
2022-12-15T23:26:44.964Z,5.82
2022-12-15T23:29:11.548Z,5.95
2022-12-15T23:31:38.175Z,5.32
2022-12-15T23:34:05.113Z,6.30
2022-12-15T23:36:31.717Z,6.32
2022-12-15T23:38:58.601Z,5.07
2022-12-15T23:41:25.226Z,5.78
2022-12-15T23:43:51.877Z,5.53
2022-12-15T23:46:18.880Z,5.88
2022-12-15T23:48:45.644Z,5.05
2022-12-15T23:51:14.073Z,6.10
2022-12-15T23:53:42.340Z,6.72
2022-12-15T23:56:11.834Z,5.22
2022-12-15T23:58:39.910Z,4.95
